Temp: 16.2°C   Hum: 76%
  Wind: 2.9mph   Dir: SSE (167°)
  Rain: 0.6mm Rate: 0.0mm/hr
  Pressure: 1017.6mb

Historic data

Bath Spa Weather Station Historical Data
Daily Summary for October 23, 2021 Units:  Both    English   Metric
Daily Weekly Monthly Yearly Custom
  High: Low: Average:
Temperature: 55.6 °F /  13.1 °C 48.7 °F /  9.3 °C 51.7 °F /  10.9 °C
Dew Point: 48.4 °F /  9.1 °C 44.8 °F /  7.1 °C 46.3 °F /  7.9 °C
Humidity: 87% 69.2% 79%
Wind Speed: 8.2mph /  13.2km/h - 2.6mph /  4.2km/h
Wind Gust: 16mph /  25.7km/h - -
Wind- - SSW
Pressure: 30.30 in /  1026 hPa 30.16 in /  1021.2 hPa -
Precipitation: 0.00 in /  0 mm    
Historical Graphs
 
 
Tabular Data for October 23, 2021
Time Temperature Dew Point Pressure Wind Wind Speed Wind Gust Humidity Rainfall Rate (Hourly) solar
00:09 49.5 °F /  9.7 °C 46.6 °F /  8.1 °C 30.30in /  1026hPa WNW 2mph /  3.2km/h 3mph /  4.8km/h 87% 0.00in /  0mm 0 W/m2
00:14 49.5 °F /  9.7 °C 46.6 °F /  8.1 °C 30.30in /  1026hPa WNW 2.1mph /  3.4km/h 4mph /  6.4km/h 87% 0.00in /  0mm 0 W/m2
00:19 49.5 °F /  9.7 °C 46.6 °F /  8.1 °C 30.30in /  1026hPa WNW 1.8mph /  2.9km/h 4mph /  6.4km/h 87% 0.00in /  0mm 0 W/m2
00:24 49.6 °F /  9.8 °C 46.7 °F /  8.2 °C 30.30in /  1026hPa WNW 2.4mph /  3.9km/h 4mph /  6.4km/h 87% 0.00in /  0mm 0 W/m2
00:29 49.6 °F /  9.8 °C 46.6 °F /  8.1 °C 30.30in /  1026hPa WNW 1.4mph /  2.3km/h 3mph /  4.8km/h 86.4% 0.00in /  0mm 0 W/m2
00:34 49.6 °F /  9.8 °C 46.5 °F /  8.1 °C 30.30in /  1026hPa WNW 0.2mph /  0.3km/h 3mph /  4.8km/h 86% 0.00in /  0mm 0 W/m2
00:39 49.5 °F /  9.7 °C 46.4 °F /  8 °C 30.30in /  1026hPa WNW 2.5mph /  4km/h 5mph /  8km/h 86% 0.00in /  0mm 0 W/m2
00:44 49.5 °F /  9.7 °C 46.4 °F /  8 °C 30.30in /  1026hPa WNW 1.2mph /  1.9km/h 4mph /  6.4km/h 86% 0.00in /  0mm 0 W/m2
00:49 49.5 °F /  9.7 °C 46.4 °F /  8 °C 30.30in /  1026hPa WNW 1.4mph /  2.3km/h 3mph /  4.8km/h 86% 0.00in /  0mm 0 W/m2
00:54 49.5 °F /  9.7 °C 46.4 °F /  8 °C 30.30in /  1026hPa WNW 1.3mph /  2.1km/h 3mph /  4.8km/h 86% 0.00in /  0mm 0 W/m2
00:59 49.5 °F /  9.7 °C 46.4 °F /  8 °C 30.30in /  1026hPa WNW 1.2mph /  1.9km/h 3mph /  4.8km/h 86% 0.00in /  0mm 0 W/m2
01:04 49.5 °F /  9.7 °C 46.4 °F /  8 °C 30.30in /  1026hPa WNW 1.9mph /  3.1km/h 3mph /  4.8km/h 86% 0.00in /  0mm 0 W/m2
01:09 49.5 °F /  9.7 °C 46.4 °F /  8 °C 30.30in /  1026hPa WNW 1.3mph /  2.1km/h 3mph /  4.8km/h 86% 0.00in /  0mm 0 W/m2
01:14 49.5 °F /  9.7 °C 46.4 °F /  8 °C 30.29in /  1025.6hPa WNW 1mph /  1.6km/h 3mph /  4.8km/h 86% 0.00in /  0mm 0 W/m2
01:19 49.5 °F /  9.7 °C 46.4 °F /  8 °C 30.29in /  1025.6hPa WNW 0.8mph /  1.3km/h 3mph /  4.8km/h 86% 0.00in /  0mm 0 W/m2
01:24 49.5 °F /  9.7 °C 46.4 °F /  8 °C 30.29in /  1025.6hPa WNW 1.6mph /  2.6km/h 3mph /  4.8km/h 86% 0.00in /  0mm 0 W/m2
01:29 49.5 °F /  9.7 °C 46.4 °F /  8 °C 30.29in /  1025.6hPa WNW 2mph /  3.2km/h 4mph /  6.4km/h 86% 0.00in /  0mm 0 W/m2
01:34 49.5 °F /  9.7 °C 46.4 °F /  8 °C 30.29in /  1025.6hPa WNW 1.3mph /  2.1km/h 4mph /  6.4km/h 86% 0.00in /  0mm 0 W/m2
01:39 49.5 °F /  9.7 °C 46.4 °F /  8 °C 30.30in /  1026hPa WNW 1.8mph /  2.9km/h 3mph /  4.8km/h 86% 0.00in /  0mm 0 W/m2
01:44 49.4 °F /  9.7 °C 46.3 °F /  7.9 °C 30.30in /  1026hPa WNW 2mph /  3.2km/h 3mph /  4.8km/h 86% 0.00in /  0mm 0 W/m2
01:49 49.3 °F /  9.6 °C 46.2 °F /  7.9 °C 30.30in /  1026hPa WNW 2mph /  3.2km/h 3mph /  4.8km/h 86% 0.00in /  0mm 0 W/m2
01:54 49.3 °F /  9.6 °C 46.2 °F /  7.9 °C 30.30in /  1026hPa WNW 1.3mph /  2.1km/h 3mph /  4.8km/h 86% 0.00in /  0mm 0 W/m2
01:59 49.3 °F /  9.6 °C 46.2 °F /  7.9 °C 30.30in /  1026hPa WNW 0.5mph /  0.8km/h 2mph /  3.2km/h 86% 0.00in /  0mm 0 W/m2
02:04 49.4 °F /  9.7 °C 46.3 °F /  7.9 °C 30.30in /  1026hPa WNW 1mph /  1.6km/h 2mph /  3.2km/h 86% 0.00in /  0mm 0 W/m2
02:09 49.4 °F /  9.7 °C 46.3 °F /  7.9 °C 30.30in /  1026hPa WNW 1.6mph /  2.6km/h 3mph /  4.8km/h 86% 0.00in /  0mm 0 W/m2
02:14 49.3 °F /  9.6 °C 46.2 °F /  7.9 °C 30.29in /  1025.6hPa WNW 1.3mph /  2.1km/h 3mph /  4.8km/h 86% 0.00in /  0mm 0 W/m2
02:19 49.3 °F /  9.6 °C 46.2 °F /  7.9 °C 30.30in /  1026hPa WNW 1.2mph /  1.9km/h 2mph /  3.2km/h 86% 0.00in /  0mm 0 W/m2
02:24 49.3 °F /  9.6 °C 46.2 °F /  7.9 °C 30.30in /  1026hPa WNW 1.6mph /  2.6km/h 3mph /  4.8km/h 86% 0.00in /  0mm 0 W/m2
02:29 49.1 °F /  9.5 °C 46.1 °F /  7.8 °C 30.30in /  1026hPa WNW 2.2mph /  3.5km/h 3mph /  4.8km/h 86% 0.00in /  0mm 0 W/m2
02:34 48.9 °F /  9.4 °C 45.9 °F /  7.7 °C 30.30in /  1026hPa WNW 2.1mph /  3.4km/h 3mph /  4.8km/h 86% 0.00in /  0mm 0 W/m2
02:39 48.9 °F /  9.4 °C 45.9 °F /  7.7 °C 30.30in /  1026hPa WNW 0.5mph /  0.8km/h 4mph /  6.4km/h 86% 0.00in /  0mm 0 W/m2
02:44 48.9 °F /  9.4 °C 45.9 °F /  7.7 °C 30.30in /  1026hPa WNW 0.4mph /  0.6km/h 2mph /  3.2km/h 86% 0.00in /  0mm 0 W/m2
02:49 49.1 °F /  9.5 °C 46 °F /  7.8 °C 30.29in /  1025.6hPa WNW 1.4mph /  2.3km/h 4mph /  6.4km/h 86% 0.00in /  0mm 0 W/m2
02:54 49.1 °F /  9.5 °C 46 °F /  7.8 °C 30.29in /  1025.6hPa WNW 0.2mph /  0.3km/h 3mph /  4.8km/h 86% 0.00in /  0mm 0 W/m2
02:59 49.1 °F /  9.5 °C 46 °F /  7.8 °C 30.29in /  1025.6hPa WNW 1.2mph /  1.9km/h 3mph /  4.8km/h 86% 0.00in /  0mm 0 W/m2
03:04 49.2 °F /  9.6 °C 46.1 °F /  7.8 °C 30.29in /  1025.6hPa WNW 0.9mph /  1.4km/h 3mph /  4.8km/h 86% 0.00in /  0mm 0 W/m2
03:09 49.2 °F /  9.6 °C 46.1 °F /  7.8 °C 30.29in /  1025.6hPa Calm   1mph /  1.6km/h 86% 0.00in /  0mm 0 W/m2
03:14 49.3 °F /  9.6 °C 46.2 °F /  7.9 °C 30.29in /  1025.6hPa Calm     86% 0.00in /  0mm 0 W/m2
03:19 49.3 °F /  9.6 °C 46.2 °F /  7.9 °C 30.29in /  1025.6hPa Calm     86% 0.00in /  0mm 0 W/m2
03:24 49.2 °F /  9.6 °C 46.1 °F /  7.8 °C 30.29in /  1025.6hPa WNW 0.2mph /  0.3km/h 2mph /  3.2km/h 86% 0.00in /  0mm 0 W/m2
03:29 49.2 °F /  9.6 °C 46.1 °F /  7.8 °C 30.29in /  1025.6hPa WNW 1.2mph /  1.9km/h 2mph /  3.2km/h 86% 0.00in /  0mm 0 W/m2
03:34 49.1 °F /  9.5 °C 46 °F /  7.8 °C 30.29in /  1025.6hPa Calm   3mph /  4.8km/h 86% 0.00in /  0mm 0 W/m2
03:39 49.1 °F /  9.5 °C 46 °F /  7.8 °C 30.29in /  1025.6hPa WNW 0.9mph /  1.4km/h 3mph /  4.8km/h 86% 0.00in /  0mm 0 W/m2
03:44 49.1 °F /  9.5 °C 46 °F /  7.8 °C 30.29in /  1025.6hPa WNW 0.2mph /  0.3km/h 1mph /  1.6km/h 86% 0.00in /  0mm 0 W/m2
03:49 49.2 °F /  9.6 °C 46.1 °F /  7.8 °C 30.29in /  1025.6hPa Calm     86% 0.00in /  0mm 0 W/m2
03:54 49.3 °F /  9.6 °C 46.2 °F /  7.9 °C 30.29in /  1025.6hPa Calm     86% 0.00in /  0mm 0 W/m2
03:59 49.3 °F /  9.6 °C 46.2 °F /  7.9 °C 30.29in /  1025.6hPa Calm     86% 0.00in /  0mm 0 W/m2
04:04 49.3 °F /  9.6 °C 46.2 °F /  7.9 °C 30.29in /  1025.6hPa WNW 0.4mph /  0.6km/h 2mph /  3.2km/h 86% 0.00in /  0mm 0 W/m2
04:09 49.3 °F /  9.6 °C 46.2 °F /  7.9 °C 30.28in /  1025.3hPa WNW 2.1mph /  3.4km/h 3mph /  4.8km/h 86% 0.00in /  0mm 0 W/m2
04:14 49.1 °F /  9.5 °C 46 °F /  7.8 °C 30.28in /  1025.3hPa WNW 0.2mph /  0.3km/h 2mph /  3.2km/h 86% 0.00in /  0mm 0 W/m2
04:19 49 °F /  9.4 °C 46 °F /  7.8 °C 30.28in /  1025.3hPa WNW 1mph /  1.6km/h 3mph /  4.8km/h 86% 0.00in /  0mm 0 W/m2
04:24 48.9 °F /  9.4 °C 45.9 °F /  7.7 °C 30.28in /  1025.3hPa WNW 0.4mph /  0.6km/h 2mph /  3.2km/h 86% 0.00in /  0mm 0 W/m2
04:29 48.9 °F /  9.4 °C 45.9 °F /  7.7 °C 30.28in /  1025.3hPa Calm     86% 0.00in /  0mm 0 W/m2
04:34 49.1 °F /  9.5 °C 46 °F /  7.8 °C 30.28in /  1025.3hPa WNW 0.2mph /  0.3km/h 1mph /  1.6km/h 86% 0.00in /  0mm 0 W/m2
04:39 49.1 °F /  9.5 °C 46 °F /  7.8 °C 30.28in /  1025.3hPa WNW 0.2mph /  0.3km/h 2mph /  3.2km/h 86% 0.00in /  0mm 0 W/m2
04:44 49.1 °F /  9.5 °C 46 °F /  7.8 °C 30.28in /  1025.3hPa Calm     86% 0.00in /  0mm 0 W/m2
04:49 49 °F /  9.4 °C 45.9 °F /  7.7 °C 30.28in /  1025.3hPa Calm     86% 0.00in /  0mm 0 W/m2
04:54 48.9 °F /  9.4 °C 45.9 °F /  7.7 °C 30.28in /  1025.3hPa Calm     86% 0.00in /  0mm 0 W/m2
04:58 48.9 °F /  9.4 °C 45.9 °F /  7.7 °C 30.28in /  1025.3hPa Calm     86% 0.00in /  0mm 0 W/m2
05:04 48.9 °F /  9.4 °C 45.9 °F /  7.7 °C 30.28in /  1025.3hPa Calm     86.4% 0.00in /  0mm 0 W/m2
05:09 48.9 °F /  9.4 °C 46 °F /  7.8 °C 30.28in /  1025.3hPa Calm     87% 0.00in /  0mm 0 W/m2
05:14 48.9 °F /  9.4 °C 46 °F /  7.8 °C 30.27in /  1024.9hPa Calm     87% 0.00in /  0mm 0 W/m2
05:19 48.9 °F /  9.4 °C 46 °F /  7.8 °C 30.27in /  1024.9hPa Calm     87% 0.00in /  0mm 0 W/m2
05:24 48.7 °F /  9.3 °C 45.9 °F /  7.7 °C 30.27in /  1024.9hPa Calm     87% 0.00in /  0mm 0 W/m2
05:29 48.7 °F /  9.3 °C 45.9 °F /  7.7 °C 30.27in /  1024.9hPa Calm     87% 0.00in /  0mm 0 W/m2
05:34 48.7 °F /  9.3 °C 45.9 °F /  7.7 °C 30.27in /  1024.9hPa WNW 0.6mph /  1km/h 3mph /  4.8km/h 87% 0.00in /  0mm 0 W/m2
05:39 48.7 °F /  9.3 °C 45.9 °F /  7.7 °C 30.27in /  1024.9hPa WNW 1.8mph /  2.9km/h 5mph /  8km/h 87% 0.00in /  0mm 0 W/m2
05:44 48.7 °F /  9.3 °C 45.8 °F /  7.7 °C 30.27in /  1024.9hPa WNW 1.4mph /  2.3km/h 5mph /  8km/h 86.2% 0.00in /  0mm 0 W/m2
05:49 48.9 °F /  9.4 °C 45.9 °F /  7.7 °C 30.27in /  1024.9hPa WNW 0.9mph /  1.4km/h 3mph /  4.8km/h 86% 0.00in /  0mm 0 W/m2
05:54 48.9 °F /  9.4 °C 45.5 °F /  7.5 °C 30.27in /  1024.9hPa WNW 2.1mph /  3.4km/h 5mph /  8km/h 85% 0.00in /  0mm 0 W/m2
05:59 49.2 °F /  9.6 °C 45.7 °F /  7.6 °C 30.27in /  1024.9hPa WNW 3.2mph /  5.1km/h 7mph /  11.3km/h 84.8% 0.00in /  0mm 0 W/m2
06:04 49.3 °F /  9.6 °C 45.5 °F /  7.5 °C 30.27in /  1024.9hPa WNW 2mph /  3.2km/h 5mph /  8km/h 84% 0.00in /  0mm 0 W/m2
06:09 49.4 °F /  9.7 °C 45.5 °F /  7.5 °C 30.27in /  1024.9hPa WNW 3.3mph /  5.3km/h 6mph /  9.7km/h 83.6% 0.00in /  0mm 0 W/m2
06:14 49.5 °F /  9.7 °C 45.3 °F /  7.4 °C 30.27in /  1024.9hPa WNW 2.7mph /  4.3km/h 7mph /  11.3km/h 83% 0.00in /  0mm 0 W/m2
06:19 49.5 °F /  9.7 °C 45.1 °F /  7.3 °C 30.27in /  1024.9hPa WNW 2.1mph /  3.4km/h 7mph /  11.3km/h 82.2% 0.00in /  0mm 0 W/m2
06:24 49.5 °F /  9.7 °C 45.2 °F /  7.3 °C 30.27in /  1024.9hPa WNW 1.7mph /  2.7km/h 4mph /  6.4km/h 82% 0.00in /  0mm 0 W/m2
06:29 49.6 °F /  9.8 °C 45.3 °F /  7.4 °C 30.27in /  1024.9hPa WNW 1.7mph /  2.7km/h 5mph /  8km/h 82% 0.00in /  0mm 0 W/m2
06:34 49.5 °F /  9.7 °C 45.1 °F /  7.3 °C 30.27in /  1024.9hPa WNW 3.2mph /  5.1km/h 4mph /  6.4km/h 82% 0.00in /  0mm 0 W/m2
06:39 49.6 °F /  9.8 °C 45.2 °F /  7.3 °C 30.27in /  1024.9hPa WNW 3.2mph /  5.1km/h 6mph /  9.7km/h 82% 0.00in /  0mm 0 W/m2
06:44 49.6 °F /  9.8 °C 45 °F /  7.2 °C 30.27in /  1024.9hPa WNW 2.1mph /  3.4km/h 5mph /  8km/h 81% 0.00in /  0mm 0 W/m2
06:49 49.6 °F /  9.8 °C 45 °F /  7.2 °C 30.27in /  1024.9hPa WNW 2.9mph /  4.7km/h 5mph /  8km/h 81% 0.00in /  0mm 0 W/m2
06:54 49.6 °F /  9.8 °C 45 °F /  7.2 °C 30.27in /  1024.9hPa WNW 2.5mph /  4km/h 5mph /  8km/h 81% 0.00in /  0mm 0 W/m2
06:59 49.6 °F /  9.8 °C 45 °F /  7.2 °C 30.27in /  1024.9hPa WNW 1.6mph /  2.6km/h 4mph /  6.4km/h 81% 0.00in /  0mm 0 W/m2
07:04 49.6 °F /  9.8 °C 45 °F /  7.2 °C 30.28in /  1025.3hPa WNW 3.2mph /  5.1km/h 5mph /  8km/h 81% 0.00in /  0mm 0 W/m2
07:09 49.6 °F /  9.8 °C 45 °F /  7.2 °C 30.28in /  1025.3hPa WNW 1.5mph /  2.4km/h 5mph /  8km/h 81% 0.00in /  0mm 0 W/m2
07:14 49.6 °F /  9.8 °C 45 °F /  7.2 °C 30.27in /  1024.9hPa WNW 0.5mph /  0.8km/h 5mph /  8km/h 81% 0.00in /  0mm 0 W/m2
07:19 49.6 °F /  9.8 °C 45 °F /  7.2 °C 30.27in /  1024.9hPa WNW 0.5mph /  0.8km/h 2mph /  3.2km/h 81% 0.00in /  0mm 0 W/m2
07:24 49.5 °F /  9.7 °C 44.9 °F /  7.2 °C 30.27in /  1024.9hPa WNW 0.2mph /  0.3km/h 2mph /  3.2km/h 81% 0.00in /  0mm 0 W/m2
07:29 49.5 °F /  9.7 °C 44.8 °F /  7.1 °C 30.27in /  1024.9hPa Calm   2mph /  3.2km/h 81% 0.00in /  0mm 0 W/m2
07:34 49.6 °F /  9.8 °C 45 °F /  7.2 °C 30.28in /  1025.3hPa WNW 0.4mph /  0.6km/h 2mph /  3.2km/h 81.4% 0.00in /  0mm 0 W/m2
07:39 49.5 °F /  9.7 °C 45.1 °F /  7.3 °C 30.28in /  1025.3hPa WNW 0.7mph /  1.1km/h 2mph /  3.2km/h 82% 0.00in /  0mm 0 W/m2
07:44 49.5 °F /  9.7 °C 45.1 °F /  7.3 °C 30.28in /  1025.3hPa Calm   2mph /  3.2km/h 82% 0.00in /  0mm 0 W/m2
07:49 49.5 °F /  9.7 °C 45.1 °F /  7.3 °C 30.27in /  1024.9hPa WNW 0.5mph /  0.8km/h 2mph /  3.2km/h 82% 0.00in /  0mm 0 W/m2
07:54 49.4 °F /  9.7 °C 45.1 °F /  7.3 °C 30.27in /  1024.9hPa Calm   1mph /  1.6km/h 82.4% 0.00in /  0mm 0 W/m2
07:59 49.3 °F /  9.6 °C 45.1 °F /  7.3 °C 30.27in /  1024.9hPa WNW 2mph /  3.2km/h 3mph /  4.8km/h 83% 0.00in /  0mm 5 W/m2
08:04 49.1 °F /  9.5 °C 45 °F /  7.2 °C 30.27in /  1024.9hPa WNW 2.5mph /  4km/h 4mph /  6.4km/h 83% 0.00in /  0mm 11 W/m2
08:09 48.9 °F /  9.4 °C 44.8 °F /  7.1 °C 30.27in /  1024.9hPa WNW 0.9mph /  1.4km/h 3mph /  4.8km/h 83% 0.00in /  0mm 12 W/m2
08:14 48.9 °F /  9.4 °C 44.8 °F /  7.1 °C 30.27in /  1024.9hPa Calm   1mph /  1.6km/h 83% 0.00in /  0mm 14 W/m2
08:19 48.9 °F /  9.4 °C 45.1 °F /  7.3 °C 30.28in /  1025.3hPa WNW 0.4mph /  0.6km/h 2mph /  3.2km/h 84% 0.00in /  0mm 16 W/m2
08:24 49.1 °F /  9.5 °C 45.3 °F /  7.4 °C 30.28in /  1025.3hPa WNW 0.4mph /  0.6km/h 2mph /  3.2km/h 84% 0.00in /  0mm 18 W/m2
08:29 49.1 °F /  9.5 °C 45.3 °F /  7.4 °C 30.28in /  1025.3hPa Calm   1mph /  1.6km/h 84% 0.00in /  0mm 23 W/m2
08:34 49.1 °F /  9.5 °C 45.3 °F /  7.4 °C 30.28in /  1025.3hPa WNW 1.6mph /  2.6km/h 5mph /  8km/h 84% 0.00in /  0mm 30 W/m2
08:39 49.3 °F /  9.6 °C 45.5 °F /  7.5 °C 30.28in /  1025.3hPa WNW 2.2mph /  3.5km/h 4mph /  6.4km/h 84% 0.00in /  0mm 30 W/m2
08:44 49.4 °F /  9.7 °C 45.3 °F /  7.4 °C 30.28in /  1025.3hPa WNW 1.2mph /  1.9km/h 5mph /  8km/h 83.2% 0.00in /  0mm 40 W/m2
08:49 49.6 °F /  9.8 °C 45.3 °F /  7.4 °C 30.29in /  1025.6hPa WNW 0.9mph /  1.4km/h 3mph /  4.8km/h 82.4% 0.00in /  0mm 44 W/m2
08:54 49.8 °F /  9.9 °C 45.4 °F /  7.4 °C 30.29in /  1025.6hPa WNW 0.9mph /  1.4km/h 3mph /  4.8km/h 81.8% 0.00in /  0mm 49 W/m2
08:59 49.9 °F /  9.9 °C 45.2 °F /  7.3 °C 30.29in /  1025.6hPa WNW 1.3mph /  2.1km/h 3mph /  4.8km/h 81% 0.00in /  0mm 49 W/m2
09:04 50.2 °F /  10.1 °C 45.3 °F /  7.4 °C 30.29in /  1025.6hPa WNW 1.6mph /  2.6km/h 4mph /  6.4km/h 80.6% 0.00in /  0mm 51 W/m2
09:09 50.3 °F /  10.2 °C 45.2 °F /  7.3 °C 30.29in /  1025.6hPa WNW 1.3mph /  2.1km/h 3mph /  4.8km/h 80% 0.00in /  0mm 53 W/m2
09:14 50.4 °F /  10.2 °C 45.3 °F /  7.4 °C 30.29in /  1025.6hPa WNW 0.2mph /  0.3km/h 2mph /  3.2km/h 80% 0.00in /  0mm 54 W/m2
09:19 50.5 °F /  10.3 °C 45.5 °F /  7.5 °C 30.29in /  1025.6hPa WNW 0.5mph /  0.8km/h 2mph /  3.2km/h 80% 0.00in /  0mm 60 W/m2
09:24 50.5 °F /  10.3 °C 45.2 °F /  7.3 °C 30.29in /  1025.6hPa WNW 1mph /  1.6km/h 4mph /  6.4km/h 79.3% 0.00in /  0mm 58 W/m2
09:29 50.7 °F /  10.4 °C 45.3 °F /  7.4 °C 30.29in /  1025.6hPa WNW 0.9mph /  1.4km/h 3mph /  4.8km/h 79% 0.00in /  0mm 63 W/m2
09:34 50.7 °F /  10.4 °C 45.3 °F /  7.4 °C 30.29in /  1025.6hPa WNW 2.2mph /  3.5km/h 5mph /  8km/h 79% 0.00in /  0mm 74 W/m2
09:39 50.8 °F /  10.4 °C 45.4 °F /  7.4 °C 30.29in /  1025.6hPa WNW 1.5mph /  2.4km/h 5mph /  8km/h 79% 0.00in /  0mm 84 W/m2
09:44 51.1 °F /  10.6 °C 45.7 °F /  7.6 °C 30.29in /  1025.6hPa WNW 2.1mph /  3.4km/h 4mph /  6.4km/h 79% 0.00in /  0mm 84 W/m2
09:49 51.1 °F /  10.6 °C 45.7 °F /  7.6 °C 30.29in /  1025.6hPa WNW 2.1mph /  3.4km/h 5mph /  8km/h 79% 0.00in /  0mm 84 W/m2
09:54 51.1 °F /  10.6 °C 45.5 °F /  7.5 °C 30.29in /  1025.6hPa WNW 2mph /  3.2km/h 5mph /  8km/h 78.4% 0.00in /  0mm 90 W/m2
09:59 51.3 °F /  10.7 °C 45.5 °F /  7.5 °C 30.29in /  1025.6hPa NNE 2.4mph /  3.9km/h 4mph /  6.4km/h 78% 0.00in /  0mm 90 W/m2
10:04 51.4 °F /  10.8 °C 45.7 °F /  7.6 °C 30.29in /  1025.6hPa NE 2.9mph /  4.7km/h 7mph /  11.3km/h 78% 0.00in /  0mm 104 W/m2
10:09 51.4 °F /  10.8 °C 45.7 °F /  7.6 °C 30.29in /  1025.6hPa ENE 4.1mph /  6.6km/h 8mph /  12.9km/h 78% 0.00in /  0mm 105 W/m2
10:14 51.4 °F /  10.8 °C 45.9 °F /  7.7 °C 30.29in /  1025.6hPa ENE 2.5mph /  4km/h 7mph /  11.3km/h 78.8% 0.00in /  0mm 90 W/m2
10:19 51.4 °F /  10.8 °C 46 °F /  7.8 °C 30.29in /  1025.6hPa East 3.6mph /  5.8km/h 8mph /  12.9km/h 79% 0.00in /  0mm 90 W/m2
10:24 51.5 °F /  10.8 °C 46.1 °F /  7.8 °C 30.29in /  1025.6hPa East 1.7mph /  2.7km/h 8mph /  12.9km/h 79% 0.00in /  0mm 95 W/m2
10:29 51.6 °F /  10.9 °C 46.2 °F /  7.9 °C 30.29in /  1025.6hPa East 3.2mph /  5.1km/h 7mph /  11.3km/h 79% 0.00in /  0mm 91 W/m2
10:34 51.6 °F /  10.9 °C 46.2 °F /  7.9 °C 30.29in /  1025.6hPa East 2.7mph /  4.3km/h 5mph /  8km/h 79% 0.00in /  0mm 104 W/m2
10:39 51.6 °F /  10.9 °C 46.2 °F /  7.9 °C 30.29in /  1025.6hPa East 2.6mph /  4.2km/h 4mph /  6.4km/h 79% 0.00in /  0mm 102 W/m2
10:44 51.6 °F /  10.9 °C 46.2 °F /  7.9 °C 30.29in /  1025.6hPa East 2mph /  3.2km/h 3mph /  4.8km/h 79% 0.00in /  0mm 102 W/m2
10:49 51.6 °F /  10.9 °C 46.6 °F /  8.1 °C 30.29in /  1025.6hPa East 2.8mph /  4.5km/h 5mph /  8km/h 80% 0.00in /  0mm 109 W/m2
10:54 51.6 °F /  10.9 °C 46.6 °F /  8.1 °C 30.29in /  1025.6hPa East 2.8mph /  4.5km/h 8mph /  12.9km/h 80% 0.00in /  0mm 125 W/m2
10:59 51.7 °F /  10.9 °C 46.7 °F /  8.2 °C 30.29in /  1025.6hPa East 2.1mph /  3.4km/h 8mph /  12.9km/h 80% 0.00in /  0mm 130 W/m2
11:04 52.2 °F /  11.2 °C 47.1 °F /  8.4 °C 30.29in /  1025.6hPa East 2.6mph /  4.2km/h 5mph /  8km/h 80% 0.00in /  0mm 144 W/m2
11:09 52.3 °F /  11.3 °C 46.9 °F /  8.3 °C 30.29in /  1025.6hPa East 2.1mph /  3.4km/h 7mph /  11.3km/h 79% 0.00in /  0mm 146 W/m2
11:14 52.3 °F /  11.3 °C 46.9 °F /  8.3 °C 30.29in /  1025.6hPa East 3.6mph /  5.8km/h 7mph /  11.3km/h 79% 0.00in /  0mm 151 W/m2
11:19 52.4 °F /  11.3 °C 47 °F /  8.3 °C 30.29in /  1025.6hPa East 4.1mph /  6.6km/h 7mph /  11.3km/h 79% 0.00in /  0mm 151 W/m2
11:24 52.5 °F /  11.4 °C 47.1 °F /  8.4 °C 30.29in /  1025.6hPa East 2.8mph /  4.5km/h 5mph /  8km/h 79% 0.00in /  0mm 155 W/m2
11:29 52.5 °F /  11.4 °C 47.1 °F /  8.4 °C 30.29in /  1025.6hPa East 2.3mph /  3.7km/h 5mph /  8km/h 79% 0.00in /  0mm 141 W/m2
11:34 52.7 °F /  11.5 °C 47.3 °F /  8.5 °C 30.29in /  1025.6hPa East 2.8mph /  4.5km/h 7mph /  11.3km/h 79% 0.00in /  0mm 135 W/m2
11:39 52.7 °F /  11.5 °C 46.9 °F /  8.3 °C 30.29in /  1025.6hPa East 4.2mph /  6.8km/h 8mph /  12.9km/h 78% 0.00in /  0mm 120 W/m2
11:44 52.8 °F /  11.6 °C 47 °F /  8.3 °C 30.29in /  1025.6hPa East 3.3mph /  5.3km/h 8mph /  12.9km/h 78% 0.00in /  0mm 114 W/m2
11:49 52.9 °F /  11.6 °C 47.1 °F /  8.4 °C 30.29in /  1025.6hPa East 1.9mph /  3.1km/h 5mph /  8km/h 78% 0.00in /  0mm 105 W/m2
11:54 53.1 °F /  11.7 °C 47.3 °F /  8.5 °C 30.29in /  1025.6hPa East 2mph /  3.2km/h 4mph /  6.4km/h 78% 0.00in /  0mm 104 W/m2
11:59 53 °F /  11.7 °C 47.2 °F /  8.4 °C 30.29in /  1025.6hPa East 3.2mph /  5.1km/h 8mph /  12.9km/h 78% 0.00in /  0mm 102 W/m2
12:04 53 °F /  11.7 °C 47.2 °F /  8.4 °C 30.29in /  1025.6hPa East 1.9mph /  3.1km/h 5mph /  8km/h 78% 0.00in /  0mm 98 W/m2
12:09 53.1 °F /  11.7 °C 47.3 °F /  8.5 °C 30.29in /  1025.6hPa East 1.6mph /  2.6km/h 5mph /  8km/h 78% 0.00in /  0mm 102 W/m2
12:14 53.2 °F /  11.8 °C 47.5 °F /  8.6 °C 30.28in /  1025.3hPa East 1.7mph /  2.7km/h 4mph /  6.4km/h 77.8% 0.00in /  0mm 114 W/m2
12:19 53.3 °F /  11.8 °C 47.2 °F /  8.4 °C 30.28in /  1025.3hPa East 2.5mph /  4km/h 4mph /  6.4km/h 77% 0.00in /  0mm 118 W/m2
12:24 53.4 °F /  11.9 °C 47.1 °F /  8.4 °C 30.28in /  1025.3hPa East 1.6mph /  2.6km/h 7mph /  11.3km/h 76.4% 0.00in /  0mm 137 W/m2
12:29 53.4 °F /  11.9 °C 46.9 °F /  8.3 °C 30.28in /  1025.3hPa East 3.8mph /  6.1km/h 9mph /  14.5km/h 76% 0.00in /  0mm 146 W/m2
12:34 53.4 °F /  11.9 °C 46.9 °F /  8.3 °C 30.28in /  1025.3hPa ESE 3.9mph /  6.3km/h 9mph /  14.5km/h 76% 0.00in /  0mm 148 W/m2
12:39 53.4 °F /  11.9 °C 46.9 °F /  8.3 °C 30.28in /  1025.3hPa ESE 4.1mph /  6.6km/h 9mph /  14.5km/h 76% 0.00in /  0mm 160 W/m2
12:44 53.4 °F /  11.9 °C 46.9 °F /  8.3 °C 30.27in /  1024.9hPa ESE 4.6mph /  7.4km/h 9mph /  14.5km/h 76% 0.00in /  0mm 179 W/m2
12:49 53.4 °F /  11.9 °C 46.9 °F /  8.3 °C 30.27in /  1024.9hPa ESE 2.8mph /  4.5km/h 8mph /  12.9km/h 76% 0.00in /  0mm 185 W/m2
12:54 53.8 °F /  12.1 °C 47.7 °F /  8.7 °C 30.27in /  1024.9hPa ESE 2.9mph /  4.7km/h 5mph /  8km/h 77% 0.00in /  0mm 172 W/m2
12:59 53.8 °F /  12.1 °C 47.5 °F /  8.6 °C 30.27in /  1024.9hPa ESE 4.9mph /  7.9km/h 7mph /  11.3km/h 76.4% 0.00in /  0mm 165 W/m2
13:04 53.8 °F /  12.1 °C 47.3 °F /  8.5 °C 30.27in /  1024.9hPa ESE 3.7mph /  6km/h 8mph /  12.9km/h 76% 0.00in /  0mm 160 W/m2
13:09 54 °F /  12.2 °C 47.6 °F /  8.7 °C 30.27in /  1024.9hPa ESE 2.5mph /  4km/h 8mph /  12.9km/h 76% 0.00in /  0mm 141 W/m2
13:14 54.1 °F /  12.3 °C 47.3 °F /  8.5 °C 30.27in /  1024.9hPa ESE 2.2mph /  3.5km/h 5mph /  8km/h 75% 0.00in /  0mm 128 W/m2
13:19 54.3 °F /  12.4 °C 47.5 °F /  8.6 °C 30.26in /  1024.6hPa ESE 3.2mph /  5.1km/h 5mph /  8km/h 75% 0.00in /  0mm 134 W/m2
13:24 54.3 °F /  12.4 °C 47.1 °F /  8.4 °C 30.26in /  1024.6hPa ESE 2.6mph /  4.2km/h 7mph /  11.3km/h 74% 0.00in /  0mm 137 W/m2
13:29 54.5 °F /  12.5 °C 47.3 °F /  8.5 °C 30.26in /  1024.6hPa ESE 3.8mph /  6.1km/h 9mph /  14.5km/h 74% 0.00in /  0mm 135 W/m2
13:34 54.3 °F /  12.4 °C 47 °F /  8.3 °C 30.26in /  1024.6hPa SE 6.2mph /  10km/h 11mph /  17.7km/h 73.6% 0.00in /  0mm 120 W/m2
13:39 54.3 °F /  12.4 °C 46.9 °F /  8.3 °C 30.26in /  1024.6hPa SSE 4.4mph /  7.1km/h 10mph /  16.1km/h 73.2% 0.00in /  0mm 125 W/m2
13:44 54.3 °F /  12.4 °C 47.2 °F /  8.4 °C 30.26in /  1024.6hPa SSE 3.2mph /  5.1km/h 6mph /  9.7km/h 74% 0.00in /  0mm 114 W/m2
13:49 54.4 °F /  12.4 °C 47.2 °F /  8.4 °C 30.26in /  1024.6hPa SSE 4.8mph /  7.7km/h 11mph /  17.7km/h 74% 0.00in /  0mm 109 W/m2
13:53 54.3 °F /  12.4 °C 47.1 °F /  8.4 °C 30.26in /  1024.6hPa South 5.2mph /  8.4km/h 11mph /  17.7km/h 74% 0.00in /  0mm 98 W/m2
13:59 54.3 °F /  12.4 °C 47.1 °F /  8.4 °C 30.26in /  1024.6hPa South 4.8mph /  7.7km/h 8mph /  12.9km/h 74% 0.00in /  0mm 113 W/m2
14:04 54.3 °F /  12.4 °C 47.1 °F /  8.4 °C 30.25in /  1024.3hPa South 2.9mph /  4.7km/h 7mph /  11.3km/h 74% 0.00in /  0mm 91 W/m2
14:09 54.3 °F /  12.4 °C 47.2 °F /  8.4 °C 30.25in /  1024.3hPa South 3.5mph /  5.6km/h 10mph /  16.1km/h 74.2% 0.00in /  0mm 114 W/m2
14:14 54.5 °F /  12.5 °C 47.7 °F /  8.7 °C 30.25in /  1024.3hPa South 2.1mph /  3.4km/h 5mph /  8km/h 75% 0.00in /  0mm 113 W/m2
14:19 54.3 °F /  12.4 °C 47.5 °F /  8.6 °C 30.25in /  1024.3hPa South 4.9mph /  7.9km/h 10mph /  16.1km/h 75% 0.00in /  0mm 120 W/m2
14:24 54.3 °F /  12.4 °C 47.5 °F /  8.6 °C 30.25in /  1024.3hPa South 4.8mph /  7.7km/h 9mph /  14.5km/h 75% 0.00in /  0mm 107 W/m2
14:29 54.3 °F /  12.4 °C 47.5 °F /  8.6 °C 30.25in /  1024.3hPa South 3.5mph /  5.6km/h 10mph /  16.1km/h 75% 0.00in /  0mm 97 W/m2
14:34 54.5 °F /  12.5 °C 47.8 °F /  8.8 °C 30.24in /  1023.9hPa South 3.6mph /  5.8km/h 7mph /  11.3km/h 75.2% 0.00in /  0mm 67 W/m2
14:39 54.5 °F /  12.5 °C 48 °F /  8.9 °C 30.24in /  1023.9hPa South 3.9mph /  6.3km/h 8mph /  12.9km/h 76% 0.00in /  0mm 63 W/m2
14:44 54.3 °F /  12.4 °C 47.7 °F /  8.7 °C 30.24in /  1023.9hPa South 5.3mph /  8.5km/h 12mph /  19.3km/h 75.4% 0.00in /  0mm 91 W/m2
14:49 54.3 °F /  12.4 °C 47.5 °F /  8.6 °C 30.24in /  1023.9hPa South 4.8mph /  7.7km/h 9mph /  14.5km/h 75% 0.00in /  0mm 114 W/m2
14:54 54.5 °F /  12.5 °C 47.7 °F /  8.7 °C 30.24in /  1023.9hPa South 3.3mph /  5.3km/h 7mph /  11.3km/h 75% 0.00in /  0mm 102 W/m2
14:59 54.7 °F /  12.6 °C 47.9 °F /  8.8 °C 30.24in /  1023.9hPa South 2.4mph /  3.9km/h 8mph /  12.9km/h 75% 0.00in /  0mm 209 W/m2
15:04 55 °F /  12.8 °C 47.9 °F /  8.8 °C 30.23in /  1023.6hPa South 5.2mph /  8.4km/h 9mph /  14.5km/h 74.5% 0.00in /  0mm 267 W/m2
15:09 55 °F /  12.8 °C 47.8 °F /  8.8 °C 30.23in /  1023.6hPa SSW 3.6mph /  5.8km/h 9mph /  14.5km/h 74% 0.00in /  0mm 202 W/m2
15:14 55.2 °F /  12.9 °C 48 °F /  8.9 °C 30.23in /  1023.6hPa SSW 5.3mph /  8.5km/h 10mph /  16.1km/h 74% 0.00in /  0mm 255 W/m2
15:19 55.5 °F /  13.1 °C 48.3 °F /  9.1 °C 30.23in /  1023.6hPa SSW 4.2mph /  6.8km/h 11mph /  17.7km/h 74% 0.00in /  0mm 311 W/m2
15:24 55.6 °F /  13.1 °C 48.4 °F /  9.1 °C 30.23in /  1023.6hPa SSW 5.6mph /  9km/h 9mph /  14.5km/h 74% 0.00in /  0mm 176 W/m2
15:29 55.5 °F /  13.1 °C 48 °F /  8.9 °C 30.23in /  1023.6hPa SSW 6mph /  9.7km/h 10mph /  16.1km/h 73.4% 0.00in /  0mm 144 W/m2
15:34 55.4 °F /  13 °C 47.5 °F /  8.6 °C 30.23in /  1023.6hPa South 4.1mph /  6.6km/h 10mph /  16.1km/h 72% 0.00in /  0mm 139 W/m2
15:39 55.2 °F /  12.9 °C 46.6 °F /  8.1 °C 30.23in /  1023.6hPa South 5.1mph /  8.2km/h 14mph /  22.5km/h 70.4% 0.00in /  0mm 113 W/m2
15:44 55.1 °F /  12.8 °C 46.2 °F /  7.9 °C 30.23in /  1023.6hPa SSW 8mph /  12.9km/h 16mph /  25.7km/h 69.6% 0.00in /  0mm 83 W/m2
15:49 55 °F /  12.8 °C 46 °F /  7.8 °C 30.23in /  1023.6hPa SSW 6.9mph /  11.1km/h 14mph /  22.5km/h 69.2% 0.00in /  0mm 67 W/m2
15:54 54.9 °F /  12.7 °C 46.4 °F /  8 °C 30.23in /  1023.6hPa SW 5.1mph /  8.2km/h 14mph /  22.5km/h 70.6% 0.00in /  0mm 102 W/m2
15:59 55 °F /  12.8 °C 46.7 °F /  8.2 °C 30.23in /  1023.6hPa SSW 4.7mph /  7.6km/h 10mph /  16.1km/h 71% 0.00in /  0mm 308 W/m2
16:04 55.4 °F /  13 °C 46.9 °F /  8.3 °C 30.22in /  1023.2hPa SSW 6mph /  9.7km/h 11mph /  17.7km/h 71% 0.00in /  0mm 258 W/m2
16:09 55 °F /  12.8 °C 46.8 °F /  8.2 °C 30.22in /  1023.2hPa SSW 4.8mph /  7.7km/h 11mph /  17.7km/h 71% 0.00in /  0mm 65 W/m2
16:14 54.9 °F /  12.7 °C 47 °F /  8.3 °C 30.22in /  1023.2hPa SSW 3.7mph /  6km/h 8mph /  12.9km/h 72% 0.00in /  0mm 58 W/m2
16:19 54.9 °F /  12.7 °C 46.9 °F /  8.3 °C 30.22in /  1023.2hPa SSW 3.5mph /  5.6km/h 11mph /  17.7km/h 72% 0.00in /  0mm 39 W/m2
16:24 54.7 °F /  12.6 °C 46.8 °F /  8.2 °C 30.22in /  1023.2hPa SSW 4.7mph /  7.6km/h 10mph /  16.1km/h 72% 0.00in /  0mm 35 W/m2
16:29 54.6 °F /  12.6 °C 46.9 °F /  8.3 °C 30.22in /  1023.2hPa SSW 6.8mph /  10.9km/h 14mph /  22.5km/h 72.6% 0.00in /  0mm 26 W/m2
16:34 54.4 °F /  12.4 °C 46.8 °F /  8.2 °C 30.22in /  1023.2hPa SW 8.2mph /  13.2km/h 12mph /  19.3km/h 73% 0.00in /  0mm 28 W/m2
16:39 54.3 °F /  12.4 °C 46.9 °F /  8.3 °C 30.22in /  1023.2hPa SW 4.4mph /  7.1km/h 12mph /  19.3km/h 73.4% 0.00in /  0mm 35 W/m2
16:44 54.1 °F /  12.3 °C 46.9 °F /  8.3 °C 30.22in /  1023.2hPa SSW 4.5mph /  7.2km/h 10mph /  16.1km/h 74% 0.00in /  0mm 35 W/m2
16:49 54.1 °F /  12.3 °C 46.8 °F /  8.2 °C 30.22in /  1023.2hPa SSW 4.3mph /  6.9km/h 9mph /  14.5km/h 73.8% 0.00in /  0mm 37 W/m2
16:54 54.1 °F /  12.3 °C 46.6 °F /  8.1 °C 30.22in /  1023.2hPa South 2.9mph /  4.7km/h 7mph /  11.3km/h 73% 0.00in /  0mm 37 W/m2
16:59 54 °F /  12.2 °C 46.5 °F /  8.1 °C 30.22in /  1023.2hPa SSW 4.1mph /  6.6km/h 10mph /  16.1km/h 73% 0.00in /  0mm 19 W/m2
17:04 54 °F /  12.2 °C 46.4 °F /  8 °C 30.22in /  1023.2hPa SW 3.3mph /  5.3km/h 11mph /  17.7km/h 73% 0.00in /  0mm 16 W/m2
17:09 54 °F /  12.2 °C 46.4 °F /  8 °C 30.22in /  1023.2hPa South 5.2mph /  8.4km/h 11mph /  17.7km/h 73% 0.00in /  0mm 12 W/m2
17:14 53.9 °F /  12.2 °C 46.3 °F /  7.9 °C 30.22in /  1023.2hPa SSW 7mph /  11.3km/h 13mph /  20.9km/h 73% 0.00in /  0mm 14 W/m2
17:19 53.8 °F /  12.1 °C 46.2 °F /  7.9 °C 30.22in /  1023.2hPa SSW 3.2mph /  5.1km/h 12mph /  19.3km/h 73% 0.00in /  0mm 14 W/m2
17:24 53.8 °F /  12.1 °C 46.2 °F /  7.9 °C 30.22in /  1023.2hPa SSW 3.7mph /  6km/h 10mph /  16.1km/h 73% 0.00in /  0mm 11 W/m2
17:29 53.7 °F /  12.1 °C 46.1 °F /  7.8 °C 30.22in /  1023.2hPa SSW 4.4mph /  7.1km/h 9mph /  14.5km/h 73% 0.00in /  0mm 5 W/m2
17:34 53.6 °F /  12 °C 46 °F /  7.8 °C 30.22in /  1023.2hPa SSW 2mph /  3.2km/h 9mph /  14.5km/h 73% 0.00in /  0mm 5 W/m2
17:39 53.6 °F /  12 °C 45.8 °F /  7.7 °C 30.22in /  1023.2hPa SSW 5.6mph /  9km/h 8mph /  12.9km/h 72.6% 0.00in /  0mm 0 W/m2
17:44 53.5 °F /  11.9 °C 45.8 °F /  7.7 °C 30.22in /  1023.2hPa SSW 3.6mph /  5.8km/h 10mph /  16.1km/h 72.4% 0.00in /  0mm 0 W/m2
17:49 53.4 °F /  11.9 °C 45.9 °F /  7.7 °C 30.22in /  1023.2hPa SSW 3.4mph /  5.5km/h 7mph /  11.3km/h 73% 0.00in /  0mm 0 W/m2
17:54 53.4 °F /  11.9 °C 45.9 °F /  7.7 °C 30.22in /  1023.2hPa SSW 3.5mph /  5.6km/h 6mph /  9.7km/h 73% 0.00in /  0mm 0 W/m2
17:59 53.4 °F /  11.9 °C 45.9 °F /  7.7 °C 30.22in /  1023.2hPa SSW 1.7mph /  2.7km/h 5mph /  8km/h 73% 0.00in /  0mm 0 W/m2
18:04 53.2 °F /  11.8 °C 45.8 °F /  7.7 °C 30.21in /  1022.9hPa SSW 2.5mph /  4km/h 6mph /  9.7km/h 73.2% 0.00in /  0mm 0 W/m2
18:09 53.2 °F /  11.8 °C 45.9 °F /  7.7 °C 30.21in /  1022.9hPa SSW 2.5mph /  4km/h 5mph /  8km/h 73.6% 0.00in /  0mm 0 W/m2
18:14 53.2 °F /  11.8 °C 46 °F /  7.8 °C 30.21in /  1022.9hPa SSW 4.2mph /  6.8km/h 7mph /  11.3km/h 74% 0.00in /  0mm 0 W/m2
18:19 53.1 °F /  11.7 °C 45.9 °F /  7.7 °C 30.21in /  1022.9hPa SSW 2.9mph /  4.7km/h 7mph /  11.3km/h 74% 0.00in /  0mm 0 W/m2
18:24 53.1 °F /  11.7 °C 45.9 °F /  7.7 °C 30.21in /  1022.9hPa SSW 2.2mph /  3.5km/h 4mph /  6.4km/h 74% 0.00in /  0mm 0 W/m2
18:29 53.1 °F /  11.7 °C 46 °F /  7.8 °C 30.21in /  1022.9hPa SSW 1.5mph /  2.4km/h 5mph /  8km/h 74.2% 0.00in /  0mm 0 W/m2
18:34 53.1 °F /  11.7 °C 46.2 °F /  7.9 °C 30.21in /  1022.9hPa SSW 1.2mph /  1.9km/h 5mph /  8km/h 75% 0.00in /  0mm 0 W/m2
18:39 53 °F /  11.7 °C 46.1 °F /  7.8 °C 30.21in /  1022.9hPa SSW 2.5mph /  4km/h 5mph /  8km/h 75% 0.00in /  0mm 0 W/m2
18:44 52.9 °F /  11.6 °C 46 °F /  7.8 °C 30.21in /  1022.9hPa SSW 2.1mph /  3.4km/h 4mph /  6.4km/h 75% 0.00in /  0mm 0 W/m2
18:49 52.9 °F /  11.6 °C 46 °F /  7.8 °C 30.22in /  1023.2hPa SSW 1.7mph /  2.7km/h 5mph /  8km/h 75% 0.00in /  0mm 0 W/m2
18:54 52.9 °F /  11.6 °C 46 °F /  7.8 °C 30.22in /  1023.2hPa SSW 3.1mph /  5km/h 6mph /  9.7km/h 75% 0.00in /  0mm 0 W/m2
18:59 52.9 °F /  11.6 °C 46 °F /  7.8 °C 30.22in /  1023.2hPa SSW 2.2mph /  3.5km/h 9mph /  14.5km/h 75% 0.00in /  0mm 0 W/m2
19:04 52.9 °F /  11.6 °C 46 °F /  7.8 °C 30.22in /  1023.2hPa SSW 3.5mph /  5.6km/h 7mph /  11.3km/h 75% 0.00in /  0mm 0 W/m2
19:09 52.9 °F /  11.6 °C 46 °F /  7.8 °C 30.22in /  1023.2hPa SSW 3.7mph /  6km/h 8mph /  12.9km/h 74.8% 0.00in /  0mm 0 W/m2
19:14 53.1 °F /  11.7 °C 45.9 °F /  7.7 °C 30.22in /  1023.2hPa SSW 3.7mph /  6km/h 8mph /  12.9km/h 74% 0.00in /  0mm 0 W/m2
19:19 53.1 °F /  11.7 °C 45.9 °F /  7.7 °C 30.21in /  1022.9hPa SSW 4.5mph /  7.2km/h 7mph /  11.3km/h 74% 0.00in /  0mm 0 W/m2
19:24 53.1 °F /  11.7 °C 45.9 °F /  7.7 °C 30.21in /  1022.9hPa SSW 2.4mph /  3.9km/h 5mph /  8km/h 74% 0.00in /  0mm 0 W/m2
19:29 53.2 °F /  11.8 °C 46 °F /  7.8 °C 30.21in /  1022.9hPa SSW 2.5mph /  4km/h 5mph /  8km/h 74% 0.00in /  0mm 0 W/m2
19:34 53.2 °F /  11.8 °C 45.7 °F /  7.6 °C 30.21in /  1022.9hPa SSW 3.7mph /  6km/h 7mph /  11.3km/h 73% 0.00in /  0mm 0 W/m2
19:39 53.2 °F /  11.8 °C 45.6 °F /  7.6 °C 30.21in /  1022.9hPa SSW 4.5mph /  7.2km/h 8mph /  12.9km/h 73% 0.00in /  0mm 0 W/m2
19:44 53.2 °F /  11.8 °C 45.7 °F /  7.6 °C 30.21in /  1022.9hPa SSW 4.4mph /  7.1km/h 7mph /  11.3km/h 73% 0.00in /  0mm 0 W/m2
19:49 53.1 °F /  11.7 °C 45.8 °F /  7.7 °C 30.21in /  1022.9hPa SSW 2.7mph /  4.3km/h 7mph /  11.3km/h 73.8% 0.00in /  0mm 0 W/m2
19:54 53.1 °F /  11.7 °C 45.9 °F /  7.7 °C 30.21in /  1022.9hPa SSW 2.9mph /  4.7km/h 7mph /  11.3km/h 74% 0.00in /  0mm 0 W/m2
19:59 53.1 °F /  11.7 °C 45.9 °F /  7.7 °C 30.21in /  1022.9hPa SSW 2mph /  3.2km/h 6mph /  9.7km/h 74% 0.00in /  0mm 0 W/m2
20:04 53.1 °F /  11.7 °C 45.9 °F /  7.7 °C 30.20in /  1022.6hPa SSW 2.2mph /  3.5km/h 6mph /  9.7km/h 74% 0.00in /  0mm 0 W/m2
20:09 53.1 °F /  11.7 °C 46.1 °F /  7.8 °C 30.20in /  1022.6hPa SSW 3.5mph /  5.6km/h 7mph /  11.3km/h 74.8% 0.00in /  0mm 0 W/m2
20:14 53.1 °F /  11.7 °C 46.2 °F /  7.9 °C 30.20in /  1022.6hPa SSW 2.3mph /  3.7km/h 7mph /  11.3km/h 75% 0.00in /  0mm 0 W/m2
20:19 53.1 °F /  11.7 °C 46.3 °F /  7.9 °C 30.20in /  1022.6hPa SSW 3.3mph /  5.3km/h 7mph /  11.3km/h 75% 0.00in /  0mm 0 W/m2
20:24 53.2 °F /  11.8 °C 46.4 °F /  8 °C 30.20in /  1022.6hPa SSW 2.4mph /  3.9km/h 5mph /  8km/h 75% 0.00in /  0mm 0 W/m2
20:29 53.2 °F /  11.8 °C 46.4 °F /  8 °C 30.20in /  1022.6hPa SSW 2.7mph /  4.3km/h 5mph /  8km/h 75% 0.00in /  0mm 0 W/m2
20:34 53.2 °F /  11.8 °C 46.4 °F /  8 °C 30.20in /  1022.6hPa SSW 3.5mph /  5.6km/h 5mph /  8km/h 75% 0.00in /  0mm 0 W/m2
20:39 53.2 °F /  11.8 °C 46.4 °F /  8 °C 30.20in /  1022.6hPa SSW 3.5mph /  5.6km/h 6mph /  9.7km/h 75% 0.00in /  0mm 0 W/m2
20:44 53.2 °F /  11.8 °C 46.4 °F /  8 °C 30.20in /  1022.6hPa SSW 2.8mph /  4.5km/h 6mph /  9.7km/h 75% 0.00in /  0mm 0 W/m2
20:49 53.1 °F /  11.7 °C 46.2 °F /  7.9 °C 30.19in /  1022.2hPa SSW 3mph /  4.8km/h 7mph /  11.3km/h 75% 0.00in /  0mm 0 W/m2
20:54 53.1 °F /  11.7 °C 46.2 °F /  7.9 °C 30.19in /  1022.2hPa SSW 4.5mph /  7.2km/h 7mph /  11.3km/h 75% 0.00in /  0mm 0 W/m2
20:59 53.1 °F /  11.7 °C 46.2 °F /  7.9 °C 30.19in /  1022.2hPa SSW 3.7mph /  6km/h 7mph /  11.3km/h 75% 0.00in /  0mm 0 W/m2
21:04 53.1 °F /  11.7 °C 46.2 °F /  7.9 °C 30.19in /  1022.2hPa SSW 4.5mph /  7.2km/h 7mph /  11.3km/h 75% 0.00in /  0mm 0 W/m2
21:09 53 °F /  11.7 °C 46.2 °F /  7.9 °C 30.19in /  1022.2hPa SSW 4.1mph /  6.6km/h 7mph /  11.3km/h 75.2% 0.00in /  0mm 0 W/m2
21:13 53 °F /  11.7 °C 46.5 °F /  8.1 °C 30.19in /  1022.2hPa SSW 4.7mph /  7.6km/h 7mph /  11.3km/h 76% 0.00in /  0mm 0 W/m2
21:19 52.9 °F /  11.6 °C 46.4 °F /  8 °C 30.19in /  1022.2hPa SSW 2.5mph /  4km/h 7mph /  11.3km/h 76% 0.00in /  0mm 0 W/m2
21:24 52.9 °F /  11.6 °C 46.4 °F /  8 °C 30.19in /  1022.2hPa SSW 5.4mph /  8.7km/h 8mph /  12.9km/h 76% 0.00in /  0mm 0 W/m2
21:29 52.9 °F /  11.6 °C 46.6 °F /  8.1 °C 30.19in /  1022.2hPa SSW 4.6mph /  7.4km/h 8mph /  12.9km/h 76.6% 0.00in /  0mm 0 W/m2
21:34 52.9 °F /  11.6 °C 46.8 °F /  8.2 °C 30.19in /  1022.2hPa SSW 3.9mph /  6.3km/h 8mph /  12.9km/h 77% 0.00in /  0mm 0 W/m2
21:39 52.9 °F /  11.6 °C 46.8 °F /  8.2 °C 30.18in /  1021.9hPa SSW 3.1mph /  5km/h 5mph /  8km/h 77% 0.00in /  0mm 0 W/m2
21:44 52.9 °F /  11.6 °C 46.8 °F /  8.2 °C 30.18in /  1021.9hPa SSW 4mph /  6.4km/h 7mph /  11.3km/h 77% 0.00in /  0mm 0 W/m2
21:49 52.8 °F /  11.6 °C 46.9 °F /  8.3 °C 30.18in /  1021.9hPa SSW 3.1mph /  5km/h 6mph /  9.7km/h 77.8% 0.00in /  0mm 0 W/m2
21:54 52.7 °F /  11.5 °C 46.9 °F /  8.3 °C 30.18in /  1021.9hPa SSW 2.9mph /  4.7km/h 6mph /  9.7km/h 78% 0.00in /  0mm 0 W/m2
21:59 52.5 °F /  11.4 °C 46.8 °F /  8.2 °C 30.18in /  1021.9hPa SSW 3.9mph /  6.3km/h 7mph /  11.3km/h 78% 0.00in /  0mm 0 W/m2
22:04 52.5 °F /  11.4 °C 46.8 °F /  8.2 °C 30.18in /  1021.9hPa SSW 3.3mph /  5.3km/h 7mph /  11.3km/h 78% 0.00in /  0mm 0 W/m2
22:09 52.5 °F /  11.4 °C 46.8 °F /  8.2 °C 30.18in /  1021.9hPa SSW 2.8mph /  4.5km/h 5mph /  8km/h 78% 0.00in /  0mm 0 W/m2
22:14 52.5 °F /  11.4 °C 46.9 °F /  8.3 °C 30.17in /  1021.6hPa SSW 3mph /  4.8km/h 6mph /  9.7km/h 78.2% 0.00in /  0mm 0 W/m2
22:19 52.5 °F /  11.4 °C 47.1 °F /  8.4 °C 30.17in /  1021.6hPa SSW 3.2mph /  5.1km/h 5mph /  8km/h 79% 0.00in /  0mm 0 W/m2
22:24 52.5 °F /  11.4 °C 47.1 °F /  8.4 °C 30.17in /  1021.6hPa SSW 4.3mph /  6.9km/h 8mph /  12.9km/h 79% 0.00in /  0mm 0 W/m2
22:29 52.5 °F /  11.4 °C 47.1 °F /  8.4 °C 30.17in /  1021.6hPa SSW 3.9mph /  6.3km/h 7mph /  11.3km/h 79% 0.00in /  0mm 0 W/m2
22:34 52.5 °F /  11.4 °C 47.1 °F /  8.4 °C 30.17in /  1021.6hPa SSW 3.8mph /  6.1km/h 7mph /  11.3km/h 79% 0.00in /  0mm 0 W/m2
22:39 52.6 °F /  11.4 °C 46.9 °F /  8.3 °C 30.17in /  1021.6hPa SSW 3.6mph /  5.8km/h 8mph /  12.9km/h 78.2% 0.00in /  0mm 0 W/m2
22:44 52.6 °F /  11.4 °C 46.8 °F /  8.2 °C 30.17in /  1021.6hPa SSW 3.7mph /  6km/h 7mph /  11.3km/h 78% 0.00in /  0mm 0 W/m2
22:49 52.6 °F /  11.4 °C 46.8 °F /  8.2 °C 30.16in /  1021.2hPa SSW 2mph /  3.2km/h 6mph /  9.7km/h 78% 0.00in /  0mm 0 W/m2
22:53 52.6 °F /  11.4 °C 46.8 °F /  8.2 °C 30.16in /  1021.2hPa SSW 3.7mph /  6km/h 5mph /  8km/h 78% 0.00in /  0mm 0 W/m2
22:59 52.5 °F /  11.4 °C 46.8 °F /  8.2 °C 30.17in /  1021.6hPa SSW 2.1mph /  3.4km/h 5mph /  8km/h 78% 0.00in /  0mm 0 W/m2
23:04 52.5 °F /  11.4 °C 46.8 °F /  8.2 °C 30.17in /  1021.6hPa SSW 2.9mph /  4.7km/h 5mph /  8km/h 78% 0.00in /  0mm 0 W/m2
23:09 52.6 °F /  11.4 °C 46.8 °F /  8.2 °C 30.17in /  1021.6hPa SSW 3.7mph /  6km/h 6mph /  9.7km/h 78% 0.00in /  0mm 0 W/m2
23:14 52.7 °F /  11.5 °C 46.9 °F /  8.3 °C 30.17in /  1021.6hPa SSW 2.5mph /  4km/h 7mph /  11.3km/h 78% 0.00in /  0mm 0 W/m2
23:19 52.7 °F /  11.5 °C 46.9 °F /  8.3 °C 30.17in /  1021.6hPa SSW 2.9mph /  4.7km/h 7mph /  11.3km/h 78% 0.00in /  0mm 0 W/m2
23:24 52.7 °F /  11.5 °C 46.8 °F /  8.2 °C 30.16in /  1021.2hPa SSW 2.8mph /  4.5km/h 5mph /  8km/h 77.6% 0.00in /  0mm 0 W/m2
23:29 52.7 °F /  11.5 °C 46.6 °F /  8.1 °C 30.16in /  1021.2hPa SSW 3.7mph /  6km/h 7mph /  11.3km/h 77% 0.00in /  0mm 0 W/m2
23:34 52.9 °F /  11.6 °C 46.8 °F /  8.2 °C 30.16in /  1021.2hPa SSW 4.8mph /  7.7km/h 7mph /  11.3km/h 77% 0.00in /  0mm 0 W/m2
23:39 52.9 °F /  11.6 °C 46.8 °F /  8.2 °C 30.16in /  1021.2hPa SSW 4.5mph /  7.2km/h 7mph /  11.3km/h 77% 0.00in /  0mm 0 W/m2
23:44 52.9 °F /  11.6 °C 46.8 °F /  8.2 °C 30.16in /  1021.2hPa SSW 4.7mph /  7.6km/h 7mph /  11.3km/h 77% 0.00in /  0mm 0 W/m2
23:49 52.9 °F /  11.6 °C 46.8 °F /  8.2 °C 30.16in /  1021.2hPa SSW 2.5mph /  4km/h 6mph /  9.7km/h 77% 0.00in /  0mm 0 W/m2
23:54 52.9 °F /  11.6 °C 46.8 °F /  8.2 °C 30.16in /  1021.2hPa SSW 3.6mph /  5.8km/h 6mph /  9.7km/h 77% 0.00in /  0mm 0 W/m2
23:59 52.9 °F /  11.6 °C 46.7 °F /  8.2 °C 30.16in /  1021.2hPa SSW 3.1mph /  5km/h 7mph /  11.3km/h 76.8% 0.00in /  0mm 0 W/m2
Bath Spa Weather
Compliments of Weather Underground - 2 mb